createdAt,value
2019-05-30T00:02:05.997Z,51.30
2019-05-30T00:04:33.230Z,51.70
2019-05-30T00:07:00.511Z,51.90
2019-05-30T00:09:27.735Z,52.40
2019-05-30T00:11:54.762Z,52.60
2019-05-30T00:14:21.537Z,51.40
2019-05-30T00:16:48.542Z,51.30
2019-05-30T00:19:15.461Z,51.50
2019-05-30T00:21:42.245Z,52.00
2019-05-30T00:24:09.041Z,50.40
2019-05-30T00:26:35.853Z,50.80
2019-05-30T00:29:02.858Z,50.20
2019-05-30T00:31:29.716Z,50.10
2019-05-30T00:33:57.475Z,49.90
2019-05-30T00:36:24.505Z,50.20
2019-05-30T00:38:51.325Z,49.60
2019-05-30T00:41:18.291Z,50.50
2019-05-30T00:43:45.361Z,51.60
2019-05-30T00:46:12.147Z,51.00
2019-05-30T00:48:39.004Z,51.30
2019-05-30T00:51:06.746Z,51.30
2019-05-30T00:53:33.900Z,51.70
2019-05-30T00:56:01.465Z,52.40
2019-05-30T00:58:29.489Z,52.60
2019-05-30T01:00:56.760Z,52.00
2019-05-30T01:03:23.756Z,52.00
2019-05-30T01:05:50.571Z,52.30
2019-05-30T01:08:17.361Z,51.70
2019-05-30T01:10:44.764Z,51.90
2019-05-30T01:13:11.552Z,51.60
2019-05-30T01:15:38.343Z,51.50
2019-05-30T01:18:05.783Z,52.40
2019-05-30T01:20:32.553Z,52.70
2019-05-30T01:23:01.203Z,51.90
2019-05-30T01:25:28.209Z,52.00
2019-05-30T01:27:55.010Z,52.30
2019-05-30T01:30:21.899Z,52.10
2019-05-30T01:32:48.803Z,51.30
2019-05-30T01:35:15.614Z,51.40
2019-05-30T01:37:42.421Z,50.60
2019-05-30T01:40:11.044Z,50.60
2019-05-30T01:42:37.864Z,51.00
2019-05-30T01:45:08.535Z,51.80
2019-05-30T01:47:35.679Z,51.60
2019-05-30T01:50:09.011Z,51.30
2019-05-30T01:52:36.036Z,51.80
2019-05-30T01:55:06.961Z,51.90
2019-05-30T01:57:34.755Z,51.90
2019-05-30T02:00:07.905Z,52.70
2019-05-30T02:02:32.675Z,54.40
2019-05-30T02:04:59.510Z,54.50
2019-05-30T02:07:26.305Z,53.90
2019-05-30T02:09:53.100Z,54.40
2019-05-30T02:12:19.918Z,52.00
2019-05-30T02:14:46.740Z,52.90
2019-05-30T02:17:13.571Z,54.40
2019-05-30T02:19:40.376Z,55.30
2019-05-30T02:22:07.971Z,55.50
2019-05-30T02:24:35.457Z,56.20
2019-05-30T02:27:02.288Z,56.10
2019-05-30T02:29:29.628Z,55.60
2019-05-30T02:31:56.428Z,55.00
2019-05-30T02:34:23.272Z,56.20
2019-05-30T02:36:50.089Z,57.50
2019-05-30T02:39:17.126Z,57.10
2019-05-30T02:41:43.994Z,57.40
2019-05-30T02:44:12.388Z,56.30
2019-05-30T02:46:39.763Z,53.90
2019-05-30T02:49:07.201Z,53.00
2019-05-30T02:51:35.254Z,53.50
2019-05-30T02:54:03.868Z,53.60
2019-05-30T02:56:30.827Z,53.70
2019-05-30T02:58:57.653Z,52.80
2019-05-30T03:01:24.831Z,52.70
2019-05-30T03:03:51.630Z,52.30
2019-05-30T03:06:18.872Z,51.90
2019-05-30T03:08:45.963Z,52.30
2019-05-30T03:11:15.249Z,52.90
2019-05-30T03:13:41.462Z,52.70
2019-05-30T03:16:09.331Z,54.50
2019-05-30T03:18:37.060Z,54.80
2019-05-30T03:21:05.671Z,53.60
2019-05-30T03:23:32.647Z,54.90
2019-05-30T03:25:59.498Z,55.40
2019-05-30T03:28:26.831Z,56.20
2019-05-30T03:30:55.068Z,57.40
2019-05-30T03:33:37.346Z,56.70
2019-05-30T03:35:51.069Z,56.70
2019-05-30T03:38:17.852Z,57.50
2019-05-30T03:40:45.351Z,58.40
2019-05-30T03:43:13.813Z,58.30
2019-05-30T03:45:43.361Z,58.00
2019-05-30T03:48:16.211Z,59.50
2019-05-30T03:50:48.992Z,60.30
2019-05-30T03:53:16.393Z,57.20
2019-05-30T03:55:48.930Z,55.90
2019-05-30T03:58:29.906Z,54.80
2019-05-30T04:01:05.914Z,54.00
2019-05-30T04:03:44.674Z,54.40
2019-05-30T04:06:16.857Z,54.00
2019-05-30T04:08:48.035Z,53.60
2019-05-30T04:11:20.225Z,53.00
2019-05-30T04:13:52.462Z,52.30
2019-05-30T04:16:19.773Z,51.50
2019-05-30T04:18:46.727Z,51.80
2019-05-30T04:21:15.909Z,51.70
2019-05-30T04:23:42.498Z,52.40
2019-05-30T04:26:09.720Z,52.60
2019-05-30T04:28:37.172Z,53.30
2019-05-30T04:31:03.969Z,54.30
2019-05-30T04:33:33.482Z,54.80
2019-05-30T04:35:59.549Z,54.30
2019-05-30T04:38:26.660Z,54.30
2019-05-30T04:40:53.570Z,54.90
2019-05-30T04:43:20.529Z,54.60
2019-05-30T04:45:47.311Z,55.50
2019-05-30T04:48:14.563Z,55.10
2019-05-30T04:50:43.014Z,55.60
2019-05-30T04:53:10.229Z,55.50
2019-05-30T04:55:38.672Z,56.40
2019-05-30T04:58:05.486Z,55.80
2019-05-30T05:00:32.261Z,56.30
2019-05-30T05:02:59.045Z,55.80
2019-05-30T05:05:27.042Z,56.70
2019-05-30T05:07:54.365Z,57.00
2019-05-30T05:10:22.541Z,63.40
2019-05-30T05:12:49.719Z,61.70
2019-05-30T05:15:18.661Z,59.10
2019-05-30T05:17:45.645Z,60.10
2019-05-30T05:20:15.142Z,60.30
2019-05-30T05:22:42.246Z,60.60
2019-05-30T05:25:09.228Z,60.50
2019-05-30T05:27:36.348Z,58.50
2019-05-30T05:30:07.475Z,58.60
2019-05-30T05:32:34.262Z,59.50
2019-05-30T05:35:01.473Z,60.60
2019-05-30T05:37:28.279Z,60.70
2019-05-30T05:39:55.391Z,60.90
2019-05-30T05:42:22.688Z,61.70
2019-05-30T05:44:49.980Z,62.00
2019-05-30T05:47:16.770Z,62.50
2019-05-30T05:49:43.659Z,61.70
2019-05-30T05:52:12.109Z,59.50
2019-05-30T05:54:39.082Z,60.00
2019-05-30T05:57:06.282Z,60.50
2019-05-30T05:59:33.266Z,57.60
2019-05-30T06:02:00.128Z,58.90
2019-05-30T06:04:27.564Z,59.20
2019-05-30T06:06:54.342Z,60.00
2019-05-30T06:09:22.493Z,57.70
2019-05-30T06:11:49.484Z,57.20
2019-05-30T06:14:17.761Z,58.30
2019-05-30T06:16:44.700Z,56.10
2019-05-30T06:19:11.708Z,57.90
2019-05-30T06:21:52.972Z,55.50
2019-05-30T06:24:07.216Z,54.40
2019-05-30T06:26:34.045Z,55.10
2019-05-30T06:29:00.943Z,57.60
2019-05-30T06:31:28.689Z,54.10
2019-05-30T06:33:55.728Z,54.80
2019-05-30T06:36:23.047Z,54.40
2019-05-30T06:38:50.017Z,55.00
2019-05-30T06:41:16.941Z,55.50
2019-05-30T06:43:43.855Z,56.70
2019-05-30T06:46:10.785Z,56.60
2019-05-30T06:48:37.593Z,56.10
2019-05-30T06:51:04.405Z,56.70
2019-05-30T06:53:31.498Z,55.70
2019-05-30T06:55:58.530Z,55.70
2019-05-30T06:58:44.860Z,55.70
2019-05-30T07:00:54.082Z,54.90
2019-05-30T07:03:22.037Z,55.50
2019-05-30T07:05:49.666Z,55.70
2019-05-30T07:08:17.023Z,55.30
2019-05-30T07:10:44.233Z,55.30
2019-05-30T07:13:11.144Z,55.00
2019-05-30T07:15:37.934Z,54.60
2019-05-30T07:18:04.759Z,55.10
2019-05-30T07:20:31.758Z,54.70
2019-05-30T07:22:58.510Z,53.30
2019-05-30T07:25:25.724Z,52.70
2019-05-30T07:27:52.620Z,52.70
2019-05-30T07:30:21.027Z,54.70
2019-05-30T07:32:47.823Z,52.80
2019-05-30T07:35:15.449Z,53.40
2019-05-30T07:37:42.243Z,54.10
2019-05-30T07:40:11.576Z,52.70
2019-05-30T07:42:38.375Z,52.40
2019-05-30T07:45:12.262Z,52.70
2019-05-30T07:47:39.155Z,53.30
2019-05-30T07:50:08.063Z,52.70
2019-05-30T07:52:34.912Z,52.80
2019-05-30T07:55:04.575Z,52.30
2019-05-30T07:57:32.814Z,52.30
2019-05-30T07:59:59.986Z,52.00
2019-05-30T08:02:27.519Z,51.20
2019-05-30T08:04:54.597Z,51.10
2019-05-30T08:07:21.591Z,50.20
2019-05-30T08:09:48.386Z,49.10
2019-05-30T08:12:15.371Z,45.40
2019-05-30T08:14:42.195Z,46.60
2019-05-30T08:17:08.992Z,46.10
2019-05-30T08:19:36.028Z,46.40
2019-05-30T08:22:02.928Z,46.70
2019-05-30T08:24:30.148Z,46.30
2019-05-30T08:26:57.159Z,46.30
2019-05-30T08:29:23.928Z,46.60
2019-05-30T08:31:50.775Z,46.30
2019-05-30T08:34:17.707Z,46.80
2019-05-30T08:36:44.526Z,46.90
2019-05-30T08:39:11.553Z,47.70
2019-05-30T08:41:39.523Z,47.90
2019-05-30T08:44:07.035Z,48.20
2019-05-30T08:46:34.151Z,48.50
2019-05-30T08:49:01.843Z,48.40
2019-05-30T08:51:30.034Z,48.10
2019-05-30T08:53:57.368Z,48.10
2019-05-30T08:56:24.140Z,48.10
2019-05-30T08:58:50.964Z,48.10
2019-05-30T09:01:18.068Z,47.30
2019-05-30T09:03:46.292Z,44.70
2019-05-30T09:06:13.252Z,44.90
2019-05-30T09:08:40.162Z,44.80
2019-05-30T09:11:07.060Z,45.10
2019-05-30T09:13:33.858Z,44.30
2019-05-30T09:16:00.682Z,43.80
2019-05-30T09:18:27.825Z,43.00
2019-05-30T09:20:54.648Z,43.90
2019-05-30T09:23:21.944Z,43.70
2019-05-30T09:25:49.442Z,44.10
2019-05-30T09:28:16.533Z,43.30
2019-05-30T09:30:44.765Z,44.10
2019-05-30T09:33:12.337Z,43.90
2019-05-30T09:35:40.206Z,43.50
2019-05-30T09:38:08.136Z,43.40
2019-05-30T09:40:34.933Z,43.40
2019-05-30T09:43:01.857Z,43.60
2019-05-30T09:45:32.763Z,43.20
2019-05-30T09:47:59.575Z,43.30
2019-05-30T09:50:26.357Z,43.50
2019-05-30T09:52:53.181Z,44.00
2019-05-30T09:55:21.067Z,43.70
2019-05-30T09:57:47.856Z,43.90
2019-05-30T10:00:18.163Z,43.20
2019-05-30T10:02:46.601Z,43.60
2019-05-30T10:05:16.436Z,43.60
2019-05-30T10:07:45.241Z,43.70
2019-05-30T10:10:13.729Z,43.90
2019-05-30T10:12:40.512Z,43.90
2019-05-30T10:15:09.918Z,43.70
2019-05-30T10:17:36.792Z,44.00
2019-05-30T10:20:06.069Z,43.90
2019-05-30T10:22:32.778Z,43.80
2019-05-30T10:24:59.567Z,44.10
2019-05-30T10:27:26.365Z,43.70
2019-05-30T10:29:53.393Z,42.30
2019-05-30T10:32:20.476Z,43.40
2019-05-30T10:34:47.919Z,43.70
2019-05-30T10:37:14.900Z,43.90
2019-05-30T10:39:41.687Z,43.90
2019-05-30T10:42:08.487Z,44.10
2019-05-30T10:44:35.314Z,44.10
2019-05-30T10:47:02.114Z,44.00
2019-05-30T10:49:34.579Z,43.60
2019-05-30T10:51:59.311Z,43.40
2019-05-30T10:54:26.332Z,43.40
2019-05-30T10:56:53.632Z,43.80
2019-05-30T10:59:20.861Z,43.20
2019-05-30T11:01:48.477Z,43.40
2019-05-30T11:04:15.562Z,43.30
2019-05-30T11:07:11.732Z,43.80
2019-05-30T11:09:46.602Z,42.00
2019-05-30T11:12:14.148Z,41.20
2019-05-30T11:14:40.939Z,39.90
2019-05-30T11:17:07.762Z,40.80
2019-05-30T11:19:34.582Z,41.00
2019-05-30T11:22:01.376Z,41.70
2019-05-30T11:24:28.166Z,41.60
2019-05-30T11:26:55.972Z,40.70
2019-05-30T11:29:24.129Z,40.30
2019-05-30T11:31:54.891Z,41.30
2019-05-30T11:34:21.832Z,40.90
2019-05-30T11:36:48.973Z,41.10
2019-05-30T11:39:16.217Z,40.50
2019-05-30T11:41:43.105Z,40.00
2019-05-30T11:44:09.899Z,39.60
2019-05-30T11:46:36.719Z,40.40
2019-05-30T11:49:04.792Z,40.70
2019-05-30T11:51:31.793Z,40.90
2019-05-30T11:53:58.615Z,40.80
2019-05-30T11:56:25.431Z,39.70
2019-05-30T11:58:52.265Z,39.30
2019-05-30T12:01:19.108Z,39.30
2019-05-30T12:03:45.921Z,39.20
2019-05-30T12:06:12.729Z,38.80
2019-05-30T12:08:39.508Z,39.10
2019-05-30T12:11:06.397Z,37.50
2019-05-30T12:13:33.400Z,36.80
2019-05-30T12:16:01.668Z,36.80
2019-05-30T12:18:29.073Z,35.00
2019-05-30T12:20:55.874Z,35.70
2019-05-30T12:23:22.788Z,34.70
2019-05-30T12:25:49.565Z,33.90
2019-05-30T12:28:16.346Z,35.10
2019-05-30T12:30:55.976Z,34.50
2019-05-30T12:33:12.074Z,33.60
2019-05-30T12:35:38.859Z,32.90
2019-05-30T12:38:06.704Z,33.10
2019-05-30T12:40:33.920Z,32.80
2019-05-30T12:43:01.535Z,33.80
2019-05-30T12:45:29.498Z,34.10
2019-05-30T12:47:57.095Z,35.10
2019-05-30T12:50:25.084Z,34.80
2019-05-30T12:52:53.349Z,34.40
2019-05-30T12:55:20.691Z,33.90
2019-05-30T12:57:47.478Z,32.10
2019-05-30T13:00:19.354Z,33.00
2019-05-30T13:02:46.100Z,31.10
2019-05-30T13:05:13.902Z,31.90
2019-05-30T13:07:40.698Z,31.50
2019-05-30T13:10:08.860Z,31.50
2019-05-30T13:12:35.650Z,30.50
2019-05-30T13:15:05.866Z,32.00
2019-05-30T13:17:32.972Z,32.00
2019-05-30T13:20:01.260Z,32.40
2019-05-30T13:22:28.486Z,30.20
2019-05-30T13:24:55.556Z,31.70
2019-05-30T13:27:22.447Z,31.10
2019-05-30T13:29:49.245Z,30.50
2019-05-30T13:32:16.059Z,30.10
2019-05-30T13:34:42.865Z,30.80
2019-05-30T13:37:09.786Z,31.20
2019-05-30T13:39:36.504Z,29.70
2019-05-30T13:42:04.204Z,30.20
2019-05-30T13:44:30.997Z,30.30
2019-05-30T13:46:58.412Z,30.40
2019-05-30T13:49:25.211Z,31.30
2019-05-30T13:51:52.277Z,31.60
2019-05-30T13:54:19.579Z,30.20
2019-05-30T13:56:46.370Z,30.50
2019-05-30T13:59:13.054Z,29.40
2019-05-30T14:01:39.861Z,30.10
2019-05-30T14:04:06.720Z,29.90
2019-05-30T14:06:33.534Z,30.60
2019-05-30T14:09:00.645Z,30.30
2019-05-30T14:11:27.703Z,29.80
2019-05-30T14:13:54.726Z,29.10
2019-05-30T14:16:21.790Z,28.00
2019-05-30T14:18:49.014Z,28.70
2019-05-30T14:21:15.997Z,28.80
2019-05-30T14:23:42.796Z,27.80
2019-05-30T14:26:09.905Z,29.10
2019-05-30T14:28:36.696Z,29.50
2019-05-30T14:31:05.000Z,28.90
2019-05-30T14:33:31.881Z,29.40
2019-05-30T14:35:58.845Z,28.70
2019-05-30T14:38:25.751Z,29.50
2019-05-30T14:40:52.551Z,26.90
2019-05-30T14:43:19.754Z,28.50
2019-05-30T14:45:46.582Z,27.90
2019-05-30T14:48:13.387Z,25.80
2019-05-30T14:50:40.162Z,28.10
2019-05-30T14:53:07.289Z,28.50
2019-05-30T14:55:34.748Z,29.60
2019-05-30T14:58:01.565Z,29.10
2019-05-30T15:00:28.385Z,28.30
2019-05-30T15:02:55.370Z,27.30
2019-05-30T15:05:22.188Z,28.30
2019-05-30T15:07:49.149Z,28.60
2019-05-30T15:10:17.572Z,27.50
2019-05-30T15:12:44.383Z,27.00
2019-05-30T15:15:16.605Z,28.00
2019-05-30T15:17:42.394Z,26.70
2019-05-30T15:20:10.684Z,26.90
2019-05-30T15:22:39.038Z,28.00
2019-05-30T15:25:07.877Z,26.70
2019-05-30T15:27:35.897Z,25.80
2019-05-30T15:30:08.397Z,23.90
2019-05-30T15:32:35.798Z,25.10
2019-05-30T15:35:03.304Z,25.40
2019-05-30T15:37:30.260Z,26.10
2019-05-30T15:39:57.039Z,24.80
2019-05-30T15:42:23.837Z,26.80
2019-05-30T15:44:50.667Z,27.00
2019-05-30T15:47:18.482Z,26.20
2019-05-30T15:49:45.789Z,25.20
2019-05-30T15:52:13.338Z,23.00
2019-05-30T15:54:40.674Z,24.40
2019-05-30T15:57:09.122Z,24.50
2019-05-30T15:59:36.360Z,24.30
2019-05-30T16:02:03.250Z,24.00
2019-05-30T16:04:30.037Z,23.50
2019-05-30T16:06:56.832Z,22.80
2019-05-30T16:09:23.627Z,22.30
2019-05-30T16:11:50.717Z,24.10
2019-05-30T16:14:17.568Z,21.50
2019-05-30T16:16:44.463Z,23.10
2019-05-30T16:19:19.329Z,21.30
2019-05-30T16:21:40.090Z,21.30
2019-05-30T16:24:06.890Z,22.00
2019-05-30T16:26:33.890Z,19.70
2019-05-30T16:29:00.979Z,20.10
2019-05-30T16:31:27.842Z,20.40
2019-05-30T16:33:54.680Z,20.50
2019-05-30T16:36:22.525Z,19.30
2019-05-30T16:38:49.450Z,20.10
2019-05-30T16:41:16.308Z,20.40
2019-05-30T16:43:43.203Z,20.90
2019-05-30T16:46:10.214Z,18.20
2019-05-30T16:48:37.002Z,18.90
2019-05-30T16:51:03.815Z,18.10
2019-05-30T16:53:30.634Z,18.60
2019-05-30T16:55:57.418Z,19.20
2019-05-30T16:58:25.718Z,17.60
2019-05-30T17:00:52.809Z,18.80
2019-05-30T17:03:19.865Z,17.40
2019-05-30T17:05:46.867Z,18.30
2019-05-30T17:08:13.963Z,18.80
2019-05-30T17:10:41.880Z,21.30
2019-05-30T17:13:08.703Z,18.60
2019-05-30T17:15:35.519Z,18.80
2019-05-30T17:18:02.401Z,19.70
2019-05-30T17:20:29.263Z,17.90
2019-05-30T17:22:56.071Z,17.70
2019-05-30T17:25:23.189Z,18.50
2019-05-30T17:27:50.377Z,18.20
2019-05-30T17:30:19.632Z,17.50
2019-05-30T17:32:46.557Z,18.20
2019-05-30T17:35:13.398Z,17.70
2019-05-30T17:37:40.200Z,19.00
2019-05-30T17:40:08.090Z,17.60
2019-05-30T17:42:35.887Z,18.10
2019-05-30T17:45:09.509Z,18.20
2019-05-30T17:47:36.546Z,17.90
2019-05-30T17:50:06.894Z,18.80
2019-05-30T17:52:33.438Z,19.90
2019-05-30T17:55:00.535Z,19.10
2019-05-30T17:57:28.144Z,18.50
2019-05-30T17:59:55.622Z,18.60
2019-05-30T18:02:22.449Z,20.20
2019-05-30T18:04:49.248Z,19.10
2019-05-30T18:07:16.360Z,18.20
2019-05-30T18:09:43.127Z,20.00
2019-05-30T18:12:10.133Z,19.80
2019-05-30T18:14:36.939Z,21.30
2019-05-30T18:17:03.718Z,19.60
2019-05-30T18:19:31.511Z,20.80
2019-05-30T18:21:58.606Z,19.90
2019-05-30T18:24:25.669Z,21.30
2019-05-30T18:26:52.671Z,21.10
2019-05-30T18:29:19.476Z,21.10
2019-05-30T18:31:46.287Z,19.80
2019-05-30T18:34:13.297Z,19.90
2019-05-30T18:36:40.351Z,20.20
2019-05-30T18:39:07.744Z,21.50
2019-05-30T18:41:34.828Z,22.80
2019-05-30T18:44:01.623Z,23.90
2019-05-30T18:46:29.159Z,24.20
2019-05-30T18:48:56.595Z,27.40
2019-05-30T18:51:24.043Z,26.80
2019-05-30T18:53:51.196Z,26.60
2019-05-30T18:56:18.144Z,24.70
2019-05-30T18:58:44.971Z,25.90
2019-05-30T19:01:12.259Z,26.00
2019-05-30T19:03:39.280Z,26.40
2019-05-30T19:06:06.367Z,25.70
2019-05-30T19:08:34.155Z,25.10
2019-05-30T19:11:01.636Z,26.70
2019-05-30T19:13:28.976Z,26.80
2019-05-30T19:15:55.876Z,27.00
2019-05-30T19:18:22.771Z,26.90
2019-05-30T19:20:49.562Z,27.20
2019-05-30T19:23:16.587Z,25.90
2019-05-30T19:25:43.636Z,26.00
2019-05-30T19:28:10.427Z,26.30
2019-05-30T19:30:40.457Z,25.40
2019-05-30T19:33:06.585Z,26.00
2019-05-30T19:35:33.450Z,25.70
2019-05-30T19:38:00.637Z,25.70
2019-05-30T19:40:27.637Z,25.10
2019-05-30T19:42:54.426Z,25.30
2019-05-30T19:45:21.337Z,25.30
2019-05-30T19:47:48.336Z,25.20
2019-05-30T19:50:15.444Z,25.10
2019-05-30T19:52:42.501Z,25.80
2019-05-30T19:55:10.446Z,25.10
2019-05-30T19:57:37.771Z,25.00
2019-05-30T20:00:11.593Z,24.90
2019-05-30T20:02:38.514Z,24.60
2019-05-30T20:05:07.323Z,25.10
2019-05-30T20:07:34.603Z,24.80
2019-05-30T20:10:03.243Z,24.70
2019-05-30T20:12:30.687Z,24.80
2019-05-30T20:14:57.837Z,24.60
2019-05-30T20:17:24.662Z,24.50
2019-05-30T20:19:51.813Z,24.40
2019-05-30T20:22:18.588Z,24.50
2019-05-30T20:24:46.067Z,24.60
2019-05-30T20:27:12.917Z,24.10
2019-05-30T20:29:43.631Z,24.10
2019-05-30T20:32:08.479Z,24.20
2019-05-30T20:34:35.279Z,24.50
2019-05-30T20:37:02.108Z,24.40
2019-05-30T20:39:28.979Z,25.00
2019-05-30T20:41:55.780Z,26.50
2019-05-30T20:44:22.572Z,28.70
2019-05-30T20:46:50.043Z,27.60
2019-05-30T20:49:16.841Z,26.50
2019-05-30T20:51:43.751Z,26.10
2019-05-30T20:54:10.568Z,25.30
2019-05-30T20:56:37.448Z,25.20
2019-05-30T20:59:04.294Z,24.90
2019-05-30T21:01:31.505Z,25.00
2019-05-30T21:03:58.189Z,24.80
2019-05-30T21:06:26.001Z,25.30
2019-05-30T21:08:54.010Z,25.10
2019-05-30T21:11:20.874Z,24.90
2019-05-30T21:13:52.429Z,24.30
2019-05-30T21:16:21.028Z,24.60
2019-05-30T21:18:50.460Z,24.80
2019-05-30T21:21:17.491Z,24.80
2019-05-30T21:23:44.478Z,24.60
2019-05-30T21:26:11.386Z,24.30
2019-05-30T21:28:38.729Z,24.60
2019-05-30T21:31:05.783Z,24.40
2019-05-30T21:33:32.648Z,24.70
2019-05-30T21:35:59.654Z,24.60
2019-05-30T21:38:26.715Z,24.50
2019-05-30T21:40:53.508Z,24.30
2019-05-30T21:43:20.289Z,24.50
2019-05-30T21:45:47.120Z,24.10
2019-05-30T21:48:14.155Z,23.80
2019-05-30T21:50:44.291Z,24.30
2019-05-30T21:53:10.479Z,23.70
2019-05-30T21:55:37.321Z,23.60
2019-05-30T21:58:05.512Z,23.50
2019-05-30T22:00:50.851Z,23.70
2019-05-30T22:03:18.317Z,23.60
2019-05-30T22:05:46.910Z,23.60
2019-05-30T22:08:14.075Z,23.70
2019-05-30T22:10:41.305Z,23.80
2019-05-30T22:13:09.768Z,23.90
2019-05-30T22:15:36.744Z,23.70
2019-05-30T22:18:03.640Z,23.70
2019-05-30T22:20:30.529Z,23.60
2019-05-30T22:22:57.663Z,23.80
2019-05-30T22:25:24.463Z,23.90
2019-05-30T22:27:52.517Z,23.80
2019-05-30T22:30:20.467Z,23.90
2019-05-30T22:32:48.642Z,23.90
2019-05-30T22:35:16.125Z,23.70
2019-05-30T22:37:43.117Z,24.30
2019-05-30T22:40:10.393Z,24.50
2019-05-30T22:42:37.218Z,24.80
2019-05-30T22:45:05.831Z,24.80
2019-05-30T22:47:32.638Z,25.10
2019-05-30T22:49:59.422Z,25.30
2019-05-30T22:52:26.604Z,25.50
2019-05-30T22:54:53.438Z,25.60
2019-05-30T22:57:20.286Z,26.30
2019-05-30T22:59:47.239Z,26.50
2019-05-30T23:02:14.051Z,26.50
2019-05-30T23:04:40.849Z,26.70
2019-05-30T23:07:07.874Z,26.50
2019-05-30T23:09:34.673Z,26.60
2019-05-30T23:12:01.468Z,26.80
2019-05-30T23:14:28.468Z,27.30
2019-05-30T23:16:56.358Z,27.60
2019-05-30T23:19:23.707Z,27.90
2019-05-30T23:21:51.633Z,27.90
2019-05-30T23:24:18.907Z,28.20
2019-05-30T23:26:45.697Z,28.30
2019-05-30T23:29:12.547Z,28.70
2019-05-30T23:31:39.327Z,29.60
2019-05-30T23:34:06.112Z,29.50
2019-05-30T23:36:32.950Z,29.80
2019-05-30T23:38:59.745Z,29.80
2019-05-30T23:41:26.529Z,29.70
2019-05-30T23:44:06.517Z,29.70
2019-05-30T23:46:21.968Z,30.20
2019-05-30T23:48:49.516Z,30.40
2019-05-30T23:51:16.844Z,30.30
2019-05-30T23:53:44.204Z,30.40
2019-05-30T23:56:11.008Z,30.40
2019-05-30T23:58:37.966Z,31.10
